This is the latest recevied weather packets stored in our database for station/object E22ZMG-2. If no packets are shown the sender has not sent any weather packets the latest 10 day(s).
| Time | Temp. | Humidity | Pressure | Rain* | Wind** | Luminosity | Snow |
|---|---|---|---|---|---|---|---|
| 1777470545 | 28.33° C | 61% | 926 hPa | - | - | 0 W/m² | - |
| 1777469921 | 28.89° C | 60% | 926 hPa | - | - | 0 W/m² | - |
| 1777469297 | 28.33° C | 60% | 926 hPa | - | - | 0 W/m² | - |
| 1777468673 | 28.89° C | 59% | 926 hPa | - | - | 0 W/m² | - |
| 1777468049 | 28.89° C | 60% | 926 hPa | - | - | 0 W/m² | - |
| 1777467425 | 28.89° C | 58% | 926 hPa | - | - | 0 W/m² | - |
| 1777466800 | 28.89° C | 58% | 926 hPa | - | - | 0 W/m² | - |
| 1777466176 | 29.44° C | 57% | 926 hPa | - | - | 0 W/m² | - |
| 1777465552 | 29.44° C | 58% | 925 hPa | - | - | 0 W/m² | - |
| 1777464928 | 29.44° C | 57% | 925 hPa | - | - | 0 W/m² | - |
| 1777464304 | 29.44° C | 58% | 925 hPa | - | - | 0 W/m² | - |
| 1777463680 | 29.44° C | 59% | 925 hPa | - | - | 0 W/m² | - |
| 1777463056 | 29.44° C | 58% | 925 hPa | - | - | 0 W/m² | - |
| 1777462431 | 29.44° C | 57% | 925 hPa | - | - | 0 W/m² | - |
| 1777461807 | 30° C | 57% | 925 hPa | - | - | 0 W/m² | - |
| 1777461183 | 29.44° C | 59% | 925 hPa | - | - | 0 W/m² | - |
| 1777460559 | 30° C | 56% | 925 hPa | - | - | 0 W/m² | - |
| 1777459935 | 29.44° C | 59% | 924 hPa | - | - | 0 W/m² | - |
| 1777459311 | 30° C | 56% | 924 hPa | - | - | 0 W/m² | - |
| 1777458687 | 30° C | 57% | 924 hPa | - | - | 0 W/m² | - |
| 1777458063 | 30° C | 56% | 924 hPa | - | - | 0 W/m² | - |
| 1777457438 | 30.56° C | 55% | 924 hPa | - | - | 0 W/m² | - |
| 1777456814 | 30.56° C | 55% | 924 hPa | - | - | 0 W/m² | - |
| 1777456190 | 30.56° C | 56% | 924 hPa | - | - | 0 W/m² | - |
| 1777455566 | 30° C | 56% | 924 hPa | - | - | 0 W/m² | - |
* Rain since midnight (hover to see other rain measurements)
** Current wind speed in m/s (hover to see current wind gust speed)